sensor_id;sensor_type;location;lat;lon;timestamp;pressure;altitude;pressure_sealevel;temperature;humidity
29359;BME280;16347;53.232;6.556;2023-04-26T00:01:02;101788.28;;;8.09;55.25
29359;BME280;16347;53.232;6.556;2023-04-26T00:03:31;101788.50;;;8.06;55.70
29359;BME280;16347;53.232;6.556;2023-04-26T00:05:59;101786.41;;;7.98;55.35
29359;BME280;16347;53.232;6.556;2023-04-26T00:08:29;101783.09;;;8.17;55.25
29359;BME280;16347;53.232;6.556;2023-04-26T00:10:57;101784.94;;;8.16;55.25
29359;BME280;16347;53.232;6.556;2023-04-26T00:13:25;101783.59;;;8.11;55.12
29359;BME280;16347;53.232;6.556;2023-04-26T00:15:53;101787.69;;;8.27;55.97
29359;BME280;16347;53.232;6.556;2023-04-26T00:18:22;101781.69;;;8.46;55.09
29359;BME280;16347;53.232;6.556;2023-04-26T00:20:50;101783.94;;;8.52;55.04
29359;BME280;16347;53.232;6.556;2023-04-26T00:23:18;101786.09;;;8.36;55.07
29359;BME280;16347;53.232;6.556;2023-04-26T00:25:46;101781.69;;;8.46;55.20
29359;BME280;16347;53.232;6.556;2023-04-26T00:28:14;101779.97;;;8.45;55.32
29359;BME280;16347;53.232;6.556;2023-04-26T00:30:42;101789.81;;;8.57;55.08
29359;BME280;16347;53.232;6.556;2023-04-26T00:33:13;101782.69;;;8.67;55.26
29359;BME280;16347;53.232;6.556;2023-04-26T00:35:43;101791.28;;;8.84;54.62
29359;BME280;16347;53.232;6.556;2023-04-26T00:38:10;101785.00;;;8.94;54.18
29359;BME280;16347;53.232;6.556;2023-04-26T00:40:38;101784.84;;;9.07;53.58
29359;BME280;16347;53.232;6.556;2023-04-26T00:43:07;101788.28;;;9.20;53.45
29359;BME280;16347;53.232;6.556;2023-04-26T00:45:35;101784.06;;;9.27;53.43
29359;BME280;16347;53.232;6.556;2023-04-26T00:48:04;101788.66;;;9.15;52.69
29359;BME280;16347;53.232;6.556;2023-04-26T00:50:32;101782.78;;;8.99;52.76
29359;BME280;16347;53.232;6.556;2023-04-26T00:53:02;101778.25;;;8.89;53.48
29359;BME280;16347;53.232;6.556;2023-04-26T00:55:30;101786.22;;;8.90;54.76
29359;BME280;16347;53.232;6.556;2023-04-26T00:57:59;101773.63;;;9.00;53.98
29359;BME280;16347;53.232;6.556;2023-04-26T01:00:27;101773.53;;;9.02;54.03
29359;BME280;16347;53.232;6.556;2023-04-26T01:02:55;101773.78;;;8.99;53.27
29359;BME280;16347;53.232;6.556;2023-04-26T01:05:24;101776.03;;;8.71;53.85
29359;BME280;16347;53.232;6.556;2023-04-26T01:07:52;101777.50;;;8.53;54.17
29359;BME280;16347;53.232;6.556;2023-04-26T01:10:22;101769.50;;;8.52;53.97
29359;BME280;16347;53.232;6.556;2023-04-26T01:12:50;101766.66;;;8.53;54.71
29359;BME280;16347;53.232;6.556;2023-04-26T01:15:18;101769.13;;;8.45;54.53
29359;BME280;16347;53.232;6.556;2023-04-26T01:17:48;101782.06;;;8.31;54.29
29359;BME280;16347;53.232;6.556;2023-04-26T01:20:17;101771.72;;;8.36;54.63
29359;BME280;16347;53.232;6.556;2023-04-26T01:22:46;101783.31;;;7.92;55.69
29359;BME280;16347;53.232;6.556;2023-04-26T01:25:15;101783.09;;;8.17;55.33
29359;BME280;16347;53.232;6.556;2023-04-26T01:27:42;101782.50;;;8.24;55.12
29359;BME280;16347;53.232;6.556;2023-04-26T01:30:11;101780.69;;;8.36;55.07
29359;BME280;16347;53.232;6.556;2023-04-26T01:32:39;101789.94;;;8.45;55.28
29359;BME280;16347;53.232;6.556;2023-04-26T01:35:07;101795.13;;;8.48;55.03
29359;BME280;16347;53.232;6.556;2023-04-26T01:37:35;101791.41;;;8.60;55.09
29359;BME280;16347;53.232;6.556;2023-04-26T01:40:06;101791.69;;;8.46;54.35
29359;BME280;16347;53.232;6.556;2023-04-26T01:42:36;101779.84;;;8.47;54.19
29359;BME280;16347;53.232;6.556;2023-04-26T01:45:04;101793.63;;;8.44;55.14
29359;BME280;16347;53.232;6.556;2023-04-26T01:47:51;101790.44;;;8.39;54.41
29359;BME280;16347;53.232;6.556;2023-04-26T01:50:22;101789.22;;;8.32;55.14
29359;BME280;16347;53.232;6.556;2023-04-26T01:52:50;101784.03;;;8.51;55.33
29359;BME280;16347;53.232;6.556;2023-04-26T01:55:19;101782.56;;;8.58;55.02
29359;BME280;16347;53.232;6.556;2023-04-26T01:57:47;101782.81;;;8.66;54.43
29359;BME280;16347;53.232;6.556;2023-04-26T02:00:15;101789.94;;;8.67;54.67
29359;BME280;16347;53.232;6.556;2023-04-26T02:02:47;101790.94;;;8.55;53.83
29359;BME280;16347;53.232;6.556;2023-04-26T02:05:15;101788.34;;;8.64;54.00
29359;BME280;16347;53.232;6.556;2023-04-26T02:07:43;101784.41;;;8.57;54.06
29359;BME280;16347;53.232;6.556;2023-04-26T02:10:11;101783.66;;;8.66;54.27
29359;BME280;16347;53.232;6.556;2023-04-26T02:12:41;101782.31;;;8.61;54.29
29359;BME280;16347;53.232;6.556;2023-04-26T02:15:10;101775.41;;;8.57;54.86
29359;BME280;16347;53.232;6.556;2023-04-26T02:17:37;101773.22;;;8.62;54.42
29359;BME280;16347;53.232;6.556;2023-04-26T02:20:07;101772.84;;;8.55;54.50
29359;BME280;16347;53.232;6.556;2023-04-26T02:22:35;101778.88;;;8.59;55.04
29359;BME280;16347;53.232;6.556;2023-04-26T02:25:05;101776.03;;;8.60;54.58
29359;BME280;16347;53.232;6.556;2023-04-26T02:27:34;101776.66;;;8.64;53.50
29359;BME280;16347;53.232;6.556;2023-04-26T02:30:05;101771.47;;;8.72;53.71
29359;BME280;16347;53.232;6.556;2023-04-26T02:32:33;101764.69;;;8.77;53.16
29359;BME280;16347;53.232;6.556;2023-04-26T02:35:02;101777.13;;;8.80;52.76
29359;BME280;16347;53.232;6.556;2023-04-26T02:37:31;101778.59;;;8.84;52.34
29359;BME280;16347;53.232;6.556;2023-04-26T02:39:59;101778.75;;;8.83;52.85
29359;BME280;16347;53.232;6.556;2023-04-26T02:42:27;101775.88;;;8.73;52.50
29359;BME280;16347;53.232;6.556;2023-04-26T02:44:55;101778.13;;;8.57;52.20
29359;BME280;16347;53.232;6.556;2023-04-26T02:47:25;101783.06;;;8.52;53.47
29359;BME280;16347;53.232;6.556;2023-04-26T02:49:52;101777.88;;;8.60;53.38
29359;BME280;16347;53.232;6.556;2023-04-26T02:52:20;101776.41;;;8.56;53.32
29359;BME280;16347;53.232;6.556;2023-04-26T02:54:48;101771.84;;;8.56;53.58
29359;BME280;16347;53.232;6.556;2023-04-26T02:57:16;101774.44;;;8.36;53.55
29359;BME280;16347;53.232;6.556;2023-04-26T02:59:44;101770.56;;;8.27;53.94
29359;BME280;16347;53.232;6.556;2023-04-26T03:02:12;101774.22;;;8.04;55.35
29359;BME280;16347;53.232;6.556;2023-04-26T03:04:41;101775.84;;;8.17;55.05
29359;BME280;16347;53.232;6.556;2023-04-26T03:07:09;101771.53;;;8.26;55.06
29359;BME280;16347;53.232;6.556;2023-04-26T03:09:37;101766.97;;;8.26;54.79
29359;BME280;16347;53.232;6.556;2023-04-26T03:12:05;101776.84;;;8.27;54.76
29359;BME280;16347;53.232;6.556;2023-04-26T03:14:34;101776.56;;;8.19;54.94
29359;BME280;16347;53.232;6.556;2023-04-26T03:17:02;101771.91;;;8.21;55.32
29359;BME280;16347;53.232;6.556;2023-04-26T03:19:31;101782.25;;;8.27;55.86
29359;BME280;16347;53.232;6.556;2023-04-26T03:22:03;101775.78;;;8.41;55.61
29359;BME280;16347;53.232;6.556;2023-04-26T03:24:31;101778.25;;;8.55;55.19
29359;BME280;16347;53.232;6.556;2023-04-26T03:26:59;101772.31;;;8.50;54.29
29359;BME280;16347;53.232;6.556;2023-04-26T03:29:27;101774.41;;;8.47;54.08
29359;BME280;16347;53.232;6.556;2023-04-26T03:31:55;101768.63;;;8.51;53.92
29359;BME280;16347;53.232;6.556;2023-04-26T03:34:23;101763.81;;;8.44;54.14
29359;BME280;16347;53.232;6.556;2023-04-26T03:36:53;101773.66;;;8.22;54.40
29359;BME280;16347;53.232;6.556;2023-04-26T03:39:22;101777.97;;;8.25;54.65
29359;BME280;16347;53.232;6.556;2023-04-26T03:41:51;101764.56;;;8.35;55.11
29359;BME280;16347;53.232;6.556;2023-04-26T03:44:19;101763.09;;;8.42;54.96
29359;BME280;16347;53.232;6.556;2023-04-26T03:46:47;101757.94;;;8.39;54.77
29359;BME280;16347;53.232;6.556;2023-04-26T03:49:14;101755.22;;;8.39;55.17
29359;BME280;16347;53.232;6.556;2023-04-26T03:51:43;101757.91;;;8.50;54.20
29359;BME280;16347;53.232;6.556;2023-04-26T03:54:11;101763.28;;;8.27;54.70
29359;BME280;16347;53.232;6.556;2023-04-26T03:56:40;101768.13;;;8.46;55.34
29359;BME280;16347;53.232;6.556;2023-04-26T03:59:08;101768.53;;;8.42;54.57
29359;BME280;16347;53.232;6.556;2023-04-26T04:01:37;101794.50;;;8.44;54.87
29359;BME280;16347;53.232;6.556;2023-04-26T04:04:05;101799.75;;;8.12;56.65
29359;BME280;16347;53.232;6.556;2023-04-26T04:06:33;101798.31;;;7.96;58.16
29359;BME280;16347;53.232;6.556;2023-04-26T04:09:04;101803.31;;;7.78;59.73
29359;BME280;16347;53.232;6.556;2023-04-26T04:11:32;101795.19;;;7.78;59.69
29359;BME280;16347;53.232;6.556;2023-04-26T04:14:02;101802.53;;;7.41;60.15
29359;BME280;16347;53.232;6.556;2023-04-26T04:16:30;101801.91;;;7.14;61.41
29359;BME280;16347;53.232;6.556;2023-04-26T04:18:58;101801.72;;;6.92;62.37
29359;BME280;16347;53.232;6.556;2023-04-26T04:21:26;101796.78;;;6.86;63.09
29359;BME280;16347;53.232;6.556;2023-04-26T04:23:55;101801.94;;;6.89;62.87
29359;BME280;16347;53.232;6.556;2023-04-26T04:26:24;101801.84;;;6.90;63.08
29359;BME280;16347;53.232;6.556;2023-04-26T04:28:53;101793.75;;;6.90;63.59
29359;BME280;16347;53.232;6.556;2023-04-26T04:31:23;101792.09;;;7.00;64.21
29359;BME280;16347;53.232;6.556;2023-04-26T04:33:51;101779.38;;;7.13;63.23
29359;BME280;16347;53.232;6.556;2023-04-26T04:36:19;101777.31;;;7.41;63.37
29359;BME280;16347;53.232;6.556;2023-04-26T04:38:47;101779.16;;;7.64;62.92
29359;BME280;16347;53.232;6.556;2023-04-26T04:41:17;101774.16;;;7.82;62.55
29359;BME280;16347;53.232;6.556;2023-04-26T04:43:45;101773.59;;;8.00;62.58
29359;BME280;16347;53.232;6.556;2023-04-26T04:46:13;101783.34;;;8.14;61.66
29359;BME280;16347;53.232;6.556;2023-04-26T04:48:43;101787.78;;;8.15;61.12
29359;BME280;16347;53.232;6.556;2023-04-26T04:51:10;101783.88;;;8.19;61.12
29359;BME280;16347;53.232;6.556;2023-04-26T04:53:38;101791.75;;;8.22;60.75
29359;BME280;16347;53.232;6.556;2023-04-26T04:56:06;101791.91;;;8.43;61.29
29359;BME280;16347;53.232;6.556;2023-04-26T04:58:34;101797.47;;;8.41;60.33
29359;BME280;16347;53.232;6.556;2023-04-26T05:01:03;101795.88;;;8.39;60.22
29359;BME280;16347;53.232;6.556;2023-04-26T05:03:45;101789.53;;;8.27;59.61
29359;BME280;16347;53.232;6.556;2023-04-26T05:06:13;101781.19;;;8.30;60.35
29359;BME280;16347;53.232;6.556;2023-04-26T05:08:41;101786.25;;;8.35;60.66
29359;BME280;16347;53.232;6.556;2023-04-26T05:11:09;101782.69;;;8.45;59.45
29359;BME280;16347;53.232;6.556;2023-04-26T05:13:37;101787.38;;;8.54;59.80
29359;BME280;16347;53.232;6.556;2023-04-26T05:16:05;101788.22;;;8.55;58.84
29359;BME280;16347;53.232;6.556;2023-04-26T05:18:33;101793.53;;;8.45;58.06
29359;BME280;16347;53.232;6.556;2023-04-26T05:21:03;101794.47;;;8.33;58.46
29359;BME280;16347;53.232;6.556;2023-04-26T05:23:31;101791.41;;;8.38;58.73
29359;BME280;16347;53.232;6.556;2023-04-26T05:26:00;101789.31;;;8.30;58.98
29359;BME280;16347;53.232;6.556;2023-04-26T05:28:48;101803.31;;;8.24;58.35
29359;BME280;16347;53.232;6.556;2023-04-26T05:31:23;101796.03;;;8.13;59.12
29359;BME280;16347;53.232;6.556;2023-04-26T05:34:00;101801.44;;;8.02;59.31
29359;BME280;16347;53.232;6.556;2023-04-26T05:36:35;101798.78;;;7.90;59.12
29359;BME280;16347;53.232;6.556;2023-04-26T05:39:03;101813.25;;;8.01;59.42
29359;BME280;16347;53.232;6.556;2023-04-26T05:41:32;101813.66;;;7.84;59.18
29359;BME280;16347;53.232;6.556;2023-04-26T05:44:00;101808.91;;;7.64;60.19
29359;BME280;16347;53.232;6.556;2023-04-26T05:46:29;101814.09;;;7.43;61.21
29359;BME280;16347;53.232;6.556;2023-04-26T05:48:57;101819.81;;;7.51;61.08
29359;BME280;16347;53.232;6.556;2023-04-26T05:51:26;101818.19;;;7.49;61.18
29359;BME280;16347;53.232;6.556;2023-04-26T05:53:55;101815.06;;;7.66;60.89
29359;BME280;16347;53.232;6.556;2023-04-26T05:56:24;101827.94;;;7.75;60.38
29359;BME280;16347;53.232;6.556;2023-04-26T05:58:52;101819.00;;;7.62;60.82
29359;BME280;16347;53.232;6.556;2023-04-26T06:01:20;101829.38;;;7.68;61.22
29359;BME280;16347;53.232;6.556;2023-04-26T06:03:49;101830.66;;;7.86;62.00
29359;BME280;16347;53.232;6.556;2023-04-26T06:06:21;101821.59;;;7.98;60.93
29359;BME280;16347;53.232;6.556;2023-04-26T06:08:49;101823.31;;;7.99;61.11
29359;BME280;16347;53.232;6.556;2023-04-26T06:11:19;101817.94;;;8.10;61.04
29359;BME280;16347;53.232;6.556;2023-04-26T06:13:48;101814.16;;;8.24;61.10
29359;BME280;16347;53.232;6.556;2023-04-26T06:16:16;101813.38;;;8.46;60.50
29359;BME280;16347;53.232;6.556;2023-04-26T06:18:46;101812.25;;;8.48;59.81
29359;BME280;16347;53.232;6.556;2023-04-26T06:21:14;101813.50;;;8.55;60.78
29359;BME280;16347;53.232;6.556;2023-04-26T06:23:42;101816.31;;;8.54;60.55
29359;BME280;16347;53.232;6.556;2023-04-26T06:26:10;101813.88;;;8.62;60.09
29359;BME280;16347;53.232;6.556;2023-04-26T06:28:39;101814.09;;;8.48;58.87
29359;BME280;16347;53.232;6.556;2023-04-26T06:31:08;101809.19;;;8.64;59.29
29359;BME280;16347;53.232;6.556;2023-04-26T06:33:36;101812.75;;;8.75;58.93
29359;BME280;16347;53.232;6.556;2023-04-26T06:36:05;101821.25;;;8.71;57.77
29359;BME280;16347;53.232;6.556;2023-04-26T06:38:33;101820.03;;;8.75;57.88
29359;BME280;16347;53.232;6.556;2023-04-26T06:41:02;101822.59;;;8.88;57.51
29359;BME280;16347;53.232;6.556;2023-04-26T06:43:31;101821.75;;;8.76;57.12
29359;BME280;16347;53.232;6.556;2023-04-26T06:46:05;101826.81;;;8.81;56.60
29359;BME280;16347;53.232;6.556;2023-04-26T06:48:34;101825.81;;;8.70;56.84
29359;BME280;16347;53.232;6.556;2023-04-26T06:51:04;101833.09;;;8.81;57.50
29359;BME280;16347;53.232;6.556;2023-04-26T06:53:32;101833.81;;;8.94;56.85
29359;BME280;16347;53.232;6.556;2023-04-26T06:56:00;101844.19;;;8.78;56.84
29359;BME280;16347;53.232;6.556;2023-04-26T06:58:28;101850.59;;;8.66;57.42
29359;BME280;16347;53.232;6.556;2023-04-26T07:00:56;101847.25;;;8.51;56.79
29359;BME280;16347;53.232;6.556;2023-04-26T07:03:26;101852.41;;;8.54;55.09
29359;BME280;16347;53.232;6.556;2023-04-26T07:05:55;101833.56;;;8.53;54.00
29359;BME280;16347;53.232;6.556;2023-04-26T07:08:23;101835.66;;;8.60;52.95
29359;BME280;16347;53.232;6.556;2023-04-26T07:10:51;101832.97;;;8.83;51.95
29359;BME280;16347;53.232;6.556;2023-04-26T07:13:21;101834.78;;;8.93;52.01
29359;BME280;16347;53.232;6.556;2023-04-26T07:15:49;101833.47;;;8.99;52.58
29359;BME280;16347;53.232;6.556;2023-04-26T07:18:17;101834.81;;;9.04;53.16
29359;BME280;16347;53.232;6.556;2023-04-26T07:20:47;101838.63;;;9.02;54.53
29359;BME280;16347;53.232;6.556;2023-04-26T07:23:15;101832.69;;;9.08;55.39
29359;BME280;16347;53.232;6.556;2023-04-26T07:25:43;101840.97;;;8.95;56.02
29359;BME280;16347;53.232;6.556;2023-04-26T07:28:11;101834.78;;;8.93;56.46
29359;BME280;16347;53.232;6.556;2023-04-26T07:30:40;101830.59;;;9.00;57.02
29359;BME280;16347;53.232;6.556;2023-04-26T07:33:08;101830.72;;;9.10;56.55
29359;BME280;16347;53.232;6.556;2023-04-26T07:35:36;101828.63;;;9.13;56.26
29359;BME280;16347;53.232;6.556;2023-04-26T07:38:06;101835.25;;;9.20;56.83
29359;BME280;16347;53.232;6.556;2023-04-26T07:40:34;101832.09;;;8.93;56.47
29359;BME280;16347;53.232;6.556;2023-04-26T07:43:03;101834.69;;;9.06;57.43
29359;BME280;16347;53.232;6.556;2023-04-26T07:45:31;101840.06;;;9.17;56.48
29359;BME280;16347;53.232;6.556;2023-04-26T07:48:00;101830.09;;;9.17;54.22
29359;BME280;16347;53.232;6.556;2023-04-26T07:50:29;101841.81;;;9.29;54.85
29359;BME280;16347;53.232;6.556;2023-04-26T07:52:57;101843.25;;;9.44;54.37
29359;BME280;16347;53.232;6.556;2023-04-26T07:55:26;101838.69;;;9.45;53.41
29359;BME280;16347;53.232;6.556;2023-04-26T07:57:55;101839.44;;;9.47;53.86
29359;BME280;16347;53.232;6.556;2023-04-26T08:00:23;101833.94;;;9.58;52.39
29359;BME280;16347;53.232;6.556;2023-04-26T08:02:51;101846.78;;;9.67;50.00
29359;BME280;16347;53.232;6.556;2023-04-26T08:05:20;101837.34;;;9.71;50.28
29359;BME280;16347;53.232;6.556;2023-04-26T08:07:50;101843.28;;;9.76;51.02
29359;BME280;16347;53.232;6.556;2023-04-26T08:10:19;101848.06;;;9.84;51.59
29359;BME280;16347;53.232;6.556;2023-04-26T08:12:49;101850.13;;;9.91;49.74
29359;BME280;16347;53.232;6.556;2023-04-26T08:15:18;101847.13;;;9.73;50.78
29359;BME280;16347;53.232;6.556;2023-04-26T08:17:47;101855.22;;;9.85;51.09
29359;BME280;16347;53.232;6.556;2023-04-26T08:20:19;101852.09;;;9.89;51.79
29359;BME280;16347;53.232;6.556;2023-04-26T08:22:48;101858.25;;;9.91;52.51
29359;BME280;16347;53.232;6.556;2023-04-26T08:25:18;101860.28;;;9.78;52.57
29359;BME280;16347;53.232;6.556;2023-04-26T08:27:46;101862.59;;;9.51;53.66
29359;BME280;16347;53.232;6.556;2023-04-26T08:30:16;101861.50;;;9.53;53.47
29359;BME280;16347;53.232;6.556;2023-04-26T08:32:45;101861.25;;;9.45;54.38
29359;BME280;16347;53.232;6.556;2023-04-26T08:35:14;101857.25;;;9.60;53.82
29359;BME280;16347;53.232;6.556;2023-04-26T08:37:43;101855.13;;;9.75;52.43
29359;BME280;16347;53.232;6.556;2023-04-26T08:40:11;101864.25;;;9.74;52.45
29359;BME280;16347;53.232;6.556;2023-04-26T08:42:41;101861.16;;;9.78;51.46
29359;BME280;16347;53.232;6.556;2023-04-26T08:45:10;101865.47;;;9.81;51.72
29359;BME280;16347;53.232;6.556;2023-04-26T08:47:42;101876.41;;;9.91;50.49
29359;BME280;16347;53.232;6.556;2023-04-26T08:50:14;101873.31;;;9.95;51.02
29359;BME280;16347;53.232;6.556;2023-04-26T08:52:43;101875.59;;;10.11;51.46
29359;BME280;16347;53.232;6.556;2023-04-26T08:55:13;101879.53;;;10.18;52.22
29359;BME280;16347;53.232;6.556;2023-04-26T08:57:45;101880.03;;;10.23;52.51
29359;BME280;16347;53.232;6.556;2023-04-26T09:00:16;101882.75;;;10.23;52.27
29359;BME280;16347;53.232;6.556;2023-04-26T09:02:48;101875.59;;;10.11;53.05
29359;BME280;16347;53.232;6.556;2023-04-26T09:05:18;101871.47;;;10.27;53.33
29359;BME280;16347;53.232;6.556;2023-04-26T09:07:54;101873.34;;;10.27;51.97
29359;BME280;16347;53.232;6.556;2023-04-26T09:10:23;101870.41;;;10.40;49.68
29359;BME280;16347;53.232;6.556;2023-04-26T09:12:53;101874.72;;;10.21;49.98
29359;BME280;16347;53.232;6.556;2023-04-26T09:15:24;101880.34;;;10.29;49.54
29359;BME280;16347;53.232;6.556;2023-04-26T09:17:55;101885.69;;;9.88;50.92
29359;BME280;16347;53.232;6.556;2023-04-26T09:20:25;101877.34;;;9.80;50.51
29359;BME280;16347;53.232;6.556;2023-04-26T09:23:03;101883.84;;;9.89;50.80
29359;BME280;16347;53.232;6.556;2023-04-26T09:25:32;101878.69;;;9.74;51.62
29359;BME280;16347;53.232;6.556;2023-04-26T09:28:02;101878.31;;;9.79;52.25
29359;BME280;16347;53.232;6.556;2023-04-26T09:30:37;101881.66;;;9.83;51.86
29359;BME280;16347;53.232;6.556;2023-04-26T09:33:07;101880.00;;;9.91;52.01
29359;BME280;16347;53.232;6.556;2023-04-26T09:35:37;101881.50;;;9.84;51.55
29359;BME280;16347;53.232;6.556;2023-04-26T09:38:07;101886.53;;;9.57;51.64
29359;BME280;16347;53.232;6.556;2023-04-26T09:40:40;101886.50;;;9.68;52.59
29359;BME280;16347;53.232;6.556;2023-04-26T09:43:10;101883.00;;;9.77;52.32
29359;BME280;16347;53.232;6.556;2023-04-26T09:45:45;101878.63;;;9.97;52.47
29359;BME280;16347;53.232;6.556;2023-04-26T09:48:18;101883.56;;;9.92;52.30
29359;BME280;16347;53.232;6.556;2023-04-26T09:50:50;101872.69;;;10.03;51.92
29359;BME280;16347;53.232;6.556;2023-04-26T09:53:28;101869.59;;;10.28;51.50
29359;BME280;16347;53.232;6.556;2023-04-26T09:56:06;101880.88;;;10.44;52.17
29359;BME280;16347;53.232;6.556;2023-04-26T09:58:36;101880.28;;;10.61;50.64
29359;BME280;16347;53.232;6.556;2023-04-26T10:01:06;101874.94;;;10.50;50.36
29359;BME280;16347;53.232;6.556;2023-04-26T10:03:37;101885.16;;;10.37;47.05
29359;BME280;16347;53.232;6.556;2023-04-26T10:06:07;101884.28;;;10.37;45.76
29359;BME280;16347;53.232;6.556;2023-04-26T10:08:36;101881.88;;;10.43;44.74
29359;BME280;16347;53.232;6.556;2023-04-26T10:11:05;101881.75;;;10.45;44.51
29359;BME280;16347;53.232;6.556;2023-04-26T10:13:37;101878.16;;;10.44;42.98
29359;BME280;16347;53.232;6.556;2023-04-26T10:16:07;101878.41;;;10.62;44.90
29359;BME280;16347;53.232;6.556;2023-04-26T10:18:38;101879.94;;;10.55;45.19
29359;BME280;16347;53.232;6.556;2023-04-26T10:21:10;101882.53;;;10.56;45.53
29359;BME280;16347;53.232;6.556;2023-04-26T10:23:39;101875.84;;;10.60;46.80
29359;BME280;16347;53.232;6.556;2023-04-26T10:26:47;101875.03;;;10.69;47.28
29359;BME280;16347;53.232;6.556;2023-04-26T10:29:17;101872.13;;;10.61;47.35
29359;BME280;16347;53.232;6.556;2023-04-26T10:32:04;101875.13;;;10.89;46.76
29359;BME280;16347;53.232;6.556;2023-04-26T10:34:35;101873.94;;;10.81;46.11
29359;BME280;16347;53.232;6.556;2023-04-26T10:37:08;101878.47;;;10.71;48.73
29359;BME280;16347;53.232;6.556;2023-04-26T10:39:37;101875.31;;;10.66;50.51
29359;BME280;16347;53.232;6.556;2023-04-26T10:42:26;101873.63;;;10.54;50.81
29359;BME280;16347;53.232;6.556;2023-04-26T10:44:56;101888.47;;;10.41;50.78
29359;BME280;16347;53.232;6.556;2023-04-26T10:47:27;101889.28;;;10.41;50.36
29359;BME280;16347;53.232;6.556;2023-04-26T10:50:06;101873.72;;;10.43;49.47
29359;BME280;16347;53.232;6.556;2023-04-26T10:52:35;101893.75;;;10.42;48.79
29359;BME280;16347;53.232;6.556;2023-04-26T10:55:04;101884.59;;;10.22;48.08
29359;BME280;16347;53.232;6.556;2023-04-26T10:57:50;101902.63;;;10.23;47.37
29359;BME280;16347;53.232;6.556;2023-04-26T11:00:29;101892.63;;;10.24;47.38
29359;BME280;16347;53.232;6.556;2023-04-26T11:03:06;101892.63;;;10.45;46.35
29359;BME280;16347;53.232;6.556;2023-04-26T11:05:52;101893.09;;;10.29;45.15
29359;BME280;16347;53.232;6.556;2023-04-26T11:08:25;101888.31;;;10.42;45.50
29359;BME280;16347;53.232;6.556;2023-04-26T11:10:58;101888.25;;;10.53;45.38
29359;BME280;16347;53.232;6.556;2023-04-26T11:13:32;101890.56;;;10.58;48.98
29359;BME280;16347;53.232;6.556;2023-04-26T11:16:01;101896.78;;;10.69;50.37
29359;BME280;16347;53.232;6.556;2023-04-26T11:18:31;101882.84;;;10.84;42.71
29359;BME280;16347;53.232;6.556;2023-04-26T11:21:01;101883.28;;;10.89;42.83
29359;BME280;16347;53.232;6.556;2023-04-26T11:23:30;101878.44;;;10.92;41.71
29359;BME280;16347;53.232;6.556;2023-04-26T11:25:58;101877.13;;;10.87;41.18
29359;BME280;16347;53.232;6.556;2023-04-26T11:28:28;101869.84;;;10.87;41.08
29359;BME280;16347;53.232;6.556;2023-04-26T11:31:00;101865.75;;;11.02;41.32
29359;BME280;16347;53.232;6.556;2023-04-26T11:33:29;101862.56;;;11.27;41.03
29359;BME280;16347;53.232;6.556;2023-04-26T11:36:01;101859.69;;;11.39;42.77
29359;BME280;16347;53.232;6.556;2023-04-26T11:38:30;101870.66;;;11.48;44.51
29359;BME280;16347;53.232;6.556;2023-04-26T11:40:59;101864.19;;;11.68;44.28
29359;BME280;16347;53.232;6.556;2023-04-26T11:43:33;101871.00;;;11.74;44.86
29359;BME280;16347;53.232;6.556;2023-04-26T11:46:02;101871.13;;;11.82;44.38
29359;BME280;16347;53.232;6.556;2023-04-26T11:48:31;101869.72;;;11.88;44.83
29359;BME280;16347;53.232;6.556;2023-04-26T11:51:02;101866.56;;;11.92;44.54
29359;BME280;16347;53.232;6.556;2023-04-26T11:53:34;101874.19;;;11.98;44.00
29359;BME280;16347;53.232;6.556;2023-04-26T11:56:04;101874.88;;;12.19;44.70
29359;BME280;16347;53.232;6.556;2023-04-26T11:58:33;101875.91;;;12.18;43.83
29359;BME280;16347;53.232;6.556;2023-04-26T12:01:01;101853.06;;;12.29;43.70
29359;BME280;16347;53.232;6.556;2023-04-26T12:03:30;101870.88;;;12.23;41.72
29359;BME280;16347;53.232;6.556;2023-04-26T12:05:59;101883.81;;;12.12;41.96
29359;BME280;16347;53.232;6.556;2023-04-26T12:08:29;101875.34;;;12.05;40.72
29359;BME280;16347;53.232;6.556;2023-04-26T12:10:59;101884.78;;;12.20;41.78
29359;BME280;16347;53.232;6.556;2023-04-26T12:13:29;101878.06;;;12.15;43.31
29359;BME280;16347;53.232;6.556;2023-04-26T12:15:58;101883.50;;;12.24;44.19
29359;BME280;16347;53.232;6.556;2023-04-26T12:18:31;101881.19;;;12.20;43.06
29359;BME280;16347;53.232;6.556;2023-04-26T12:20:59;101874.59;;;12.42;43.31
29359;BME280;16347;53.232;6.556;2023-04-26T12:23:38;101881.63;;;12.34;44.84
29359;BME280;16347;53.232;6.556;2023-04-26T12:26:06;101872.16;;;12.29;45.28
29359;BME280;16347;53.232;6.556;2023-04-26T12:28:36;101877.47;;;12.40;45.70
29359;BME280;16347;53.232;6.556;2023-04-26T12:31:05;101885.34;;;12.33;45.42
29359;BME280;16347;53.232;6.556;2023-04-26T12:33:34;101891.09;;;12.30;45.16
29359;BME280;16347;53.232;6.556;2023-04-26T12:36:07;101893.84;;;12.21;44.68
29359;BME280;16347;53.232;6.556;2023-04-26T12:38:37;101897.44;;;12.12;44.75
29359;BME280;16347;53.232;6.556;2023-04-26T12:41:07;101896.69;;;12.00;44.71
29359;BME280;16347;53.232;6.556;2023-04-26T12:43:35;101897.56;;;12.01;45.08
29359;BME280;16347;53.232;6.556;2023-04-26T12:46:03;101890.09;;;11.93;45.52
29359;BME280;16347;53.232;6.556;2023-04-26T12:48:32;101890.50;;;11.89;43.51
29359;BME280;16347;53.232;6.556;2023-04-26T12:51:00;101897.41;;;11.83;43.20
29359;BME280;16347;53.232;6.556;2023-04-26T12:53:28;101898.78;;;11.68;42.77
29359;BME280;16347;53.232;6.556;2023-04-26T12:55:58;101903.25;;;11.78;42.81
29359;BME280;16347;53.232;6.556;2023-04-26T12:58:26;101907.19;;;11.55;43.19
29359;BME280;16347;53.232;6.556;2023-04-26T13:00:54;101898.91;;;11.66;41.85
29359;BME280;16347;53.232;6.556;2023-04-26T13:03:22;101894.47;;;11.65;41.33
29359;BME280;16347;53.232;6.556;2023-04-26T13:05:50;101902.50;;;11.67;41.46
29359;BME280;16347;53.232;6.556;2023-04-26T13:08:18;101888.63;;;11.79;41.22
29359;BME280;16347;53.232;6.556;2023-04-26T13:10:47;101901.78;;;11.65;41.32